< Cyclone 198006 1980 Season Cyclone 198008 >
Cyclone 198007 (CLARA)
General InformationTrack Information on Google Maps || ResourceGoogle EarthGE AnimationAtom FeedGeoJSON
Detalied Best Track (Time Zone = UTC)
Year Month Day Hour Lat. Long. Pressure (hPa) Wind (kt) Class Image Chart
1980 1 21 00 -9.6 89.7 1001 0 0 -- --
1980 1 21 06 -9.8 90.1 999 0 0 -- --
1980 1 21 12 -9.9 90.4 998 0 0 -- --
1980 1 21 18 -10.0 90.8 996 0 0 -- --
1980 1 22 00 -10.2 91.1 993 0 0 -- --
1980 1 22 06 -10.7 91.8 988 0 0 -- --
1980 1 22 12 -11.2 92.5 992 0 0 -- --
1980 1 22 18 -11.9 93.5 996 0 0 -- --
1980 1 23 00 -12.4 94.6 999 0 0 -- --
1980 1 23 06 -12.7 96.3 1001 0 0 -- --
1980 1 23 12 -12.1 97.8 1003 0 0 -- --
1980 1 23 18 -11.4 99.4 1004 0 0 -- --
1980 1 24 00 -11.9 101.0 1003 0 0 -- --
1980 1 24 06 -12.8 102.0 999 0 0 -- --
1980 1 24 12 -13.6 102.7 994 0 0 -- --
1980 1 24 18 -14.1 103.4 990 0 0 -- --
1980 1 25 00 -14.6 104.2 987 0 0 -- --
1980 1 25 06 -14.8 105.7 988 0 0 -- --
1980 1 25 12 -13.6 107.0 992 0 0 -- --
1980 1 25 18 -13.3 108.6 996 0 0 -- --
1980 1 26 00 -13.8 110.1 994 0 0 -- --
1980 1 26 06 -15.1 112.1 987 0 0 -- --
1980 1 26 12 -16.9 113.3 982 0 0 -- --
1980 1 26 15 -17.7 113.2 980 0 0 -- --
1980 1 26 18 -18.3 112.3 983 0 0 -- --
1980 1 27 00 -18.9 110.7 988 0 0 -- --
1980 1 27 06 -20.3 109.9 994 0 0 -- --
1980 1 27 12 -21.5 108.6 998 0 0 -- --
1980 1 27 18 -22.5 107.5 1000 0 0 -- --
1980 1 28 00 -22.9 106.4 1001 0 0 -- --
1980 1 28 06 -23.3 105.8 1002 0 0 -- --
1980 1 28 12 -23.6 104.8 1003 0 0 -- --
1980 1 28 18 -22.9 104.0 1004 0 0 -- --
1980 1 29 00 -22.1 103.1 1005 0 0 -- --
< Cyclone 198006 1980 Season Cyclone 198008 >

Help